< < Back
Terminal Aerodrome Forecast


Current Version              Previous Versions:   1  2  3  4  5  6  7  8  9  

Terminal Aerodrome Forecast

077
FTUS42 KMLB 260300 AAB
TAFMCO
TAF AMD
KMCO 260349Z 2604/2624 01011KT P6SM VCTS SCT007CB BKN015 OVC035
      TEMPO 2604/2606 1SM RA BKN005 OVC020
     FM260600 19010KT P6SM VCSH BKN010
     FM260900 25016G25KT P6SM VCSH BKN025
     FM261400 33011KT P6SM SCT020 BKN040=

Latest METAR

205
SAUS70 KWBC 260700 RRL
MTRMCO
METAR KMCO 260653Z 18009KT 10SM -RA SCT006 BKN022 OVC140 22/22 A2986 RMK
AO2 SLP111 P0007 T02220217 $


USA.gov is the U.S. government's official web portal to all federal, state and local government web resources and services.